RAAF Base Curtin
YCIN : now visible

Airfield :











YOU CAN JOIN US ON...

 
LOGIN :

Register | Disclaimer

   EN    FR    IT 

 









Legend :    VFR   Marginal VFR   IFR   Intensive IFR   Very Intensive IFR
Visi :
Ceiling :
>= 8 km
>= 3000ft
5 to 8 km
1000 to 3000 ft
1500m to 5 km
500 to 1000 ft
800 to 1500m
200 to 500 ft
< 800m
< 200 ft
Symbols :   Thunderstorms  Fog  Heavy snow  Heavy precipitations  Wind > 20 kt







- Airport Elevation : 300 ft


YCIN - RAAF Base Curtin

CURRENT METAR :
  • 202130Z AUTO 05005KT 9999 // NCD 25/25 Q1007 RF00.0/000.0

EXPIRED METARs :
  • 202100Z AUTO 03005KT 9999 // NCD 25/25 Q1007
  • 202030Z AUTO 04005KT 9999 // NCD 25/25 Q1006 RF00.0/000.0
  • 202000Z AUTO 03005KT 9999 // NCD 25/25 Q1006
  • 201930Z AUTO 04004KT 9999 // NCD 25/25 Q1006 RF00.0/000.0
  • 201900Z AUTO 05005KT 9999 // NCD 25/25 Q1006

TAF TAF YCIN
Valid from the 20 at 20:00 until the 21 at 08:00 UTC


201839Z 2020/2108 35008KT CAVOK
YBBB FIR / Oceania



MET'MAP, your aeronautical weather chart ! - Copyright ORBIFLY December 2007 - Disclaimer

ORBIFLY MET'MAP TEAM :

Programming & Development : Alexandra Zaïnal
Concept & Development : Baudouin d'Aumeries
Co-Development & Prog : Marc-Olivier Méhu
Technical & hardware support : Manuel Goepfert

Contact : metmap@orbifly.com




SOURCES & CREDITS :

   NOAA       Earth
Advisory